Aérodrome :
LOGIN :

S'inscrire | Disclaimer

   EN    FR    IT 

 










Légende :    VFR   VFR Marginal   IFR   IFR Intensif   IFR Très Intensif
Visi : 
Plafond : 
>= 8 km
>= 3000ft
5 à 8 km
1000 à 3000 ft
1500m à 5 km
500 à 1000 ft
800 à 1500m
200 à 500 ft
< 800m
< 200 ft
Symboles :   Orages  Brouillard  Fortes neiges  Fortes précipitations  Vent > 20 kt
SIGMETs :   Divers  Orages  Givrage  Turbulence  Onde Orograph.  Cendres Volcan.







- Altitude de l'aérodrome : 102 ft
- Code IATA : CNG
- Voir les cartes d'approche


LFBG - Cognac

DERNIER METAR :
  • 200730Z AUTO 07002KT 2700 BR FEW003 OVC013 05/05 Q1025 BECMG 3000 BR OVC003

METARs EXPIRÉS :
  • 200700Z AUTO 05002KT 2500 BR SCT003 BKN007 OVC013 05/04 Q1025 TEMPO 0500 FG BECMG OVC003
  • 200630Z AUTO 00000KT 4500 1400 R23/P2000 BR OVC002 04/04 Q1025 TEMPO 0500 FG
  • 200600Z AUTO 27001KT 5000 BR OVC002 04/04 Q1025 TEMPO 0500 FG BECMG OVC005
  • 200530Z AUTO 00000KT 5000 BR OVC004 04/03 Q1025
  • 200500Z AUTO 00000KT 4200 BR OVC005 03/03 Q1025

TAF AMD TAF LFBG
Valide du 20 à 05h jusqu'au 21 à 03h UTC


200556Z 2005/2103 VRB02KT 3000 BR OVC003
PROB40
TEMPO 2006/2009 0500 FG
BECMG 2010/2012 16007KT OVC005
BECMG 2015/2017 CAVOK
BECMG 2019/2021 0500 FG VV///
Pas de NOTAMs connus pour ce terrain.



MET'MAP, la Météo Aéronautique d'un coup d'oeil ! - Copyright ORBIFLY Décembre 2007 - Disclaimer

ORBIFLY MET'MAP TEAM :

Programmation & Développement : Alexandra Zaïnal
Conception & Développement : Baudouin d'Aumeries
Co-Programmation & Développement : Marc-Olivier Méhu
Soutien technique & logistique : Manuel Goepfert

Contact : metmap@orbifly.com




SOURCES & CREDITS :

   NOAA